x

Buoy I01 - Eastern Maine Shelf (44034) Wave Buoy

9:04pm - Sat 27th Dec 2014 All times are EST. -5 hours from GMT.

  • Sig Wave height 2.0ft
  • Peak Period 5s
  • Wind
    9mph
  • Sea Temp 47°f
  • 空気 Temp 45°f
  • Sea Pressure 1017.7mb
  • Buoy I01 - Eastern Maine Shelf
  • Buoy I01 - Eastern Maine Shelf

More Historic Weather Station data

Upgrade to MSW Pro to gain access to the past 30 days of data for over 8000 Wavebouys and Weather Stations around the globe.

Join Pro

Comparision Forecast

View Surf forecast
   
Sat 12/27 9:04pm 2ft 5s 9
mph
1017.7mb 47f 45f
8:04pm 2ft 5s 9 11 mph 1018.2mb 47f 46f
7:04pm 0.7ft  -  9 11 mph 1017.7mb 47f 46f
6:04pm 2.5ft 5s 11
mph
1018.1mb 47f 46f
5:04pm 2.5ft 5s 9 13 mph 1017.9mb 47f 46f
4:04pm 2.5ft 5s 11 16 mph 1017.7mb 47f 46f
3:04pm 2.5ft 5s 16 20 mph 1017.6mb 47f 46f
2:04pm 2.5ft 5s 13 18 mph 1017.4mb 47f 46f
1:04pm 3.5ft 5s 13 18 mph 1017.7mb 47f 46f
12:04pm 3ft 5s 13 18 mph 1017.9mb 47f 45f
11:04am 4ft 5s 18 20 mph 1018.7mb 47f 45f
10:04am 4ft 5s 18 22 mph 1019.4mb 47f 45f
9:04am 3.5ft 6s 18 22 mph 1019.1mb 47f 45f
8:04am 3.5ft 8s 18 20 mph 1018.6mb 47f 44f
7:04am 3ft 5s 16 18 mph 1017.9mb 47f 44f
6:04am 3.5ft 6s 13 16 mph 1017.5mb 47f 43f
5:04am 4ft 6s 13 16 mph 1016.9mb 47f 43f
4:04am 4ft 6s 11 13 mph 1016.6mb 47f 42f
3:04am 4.5ft 6s 13 18 mph 1016.5mb 47f 43f
2:04am 4.5ft 6s 16 20 mph 1016.3mb 47f 43f
12:04am 4.5ft 8s 18 22 mph 1016.2mb 47f 44f
Fri 12/26 11:04pm 4.5ft 8s 18 20 mph 1016.7mb 47f 44f
10:04pm 4.5ft 8s 16 20 mph 1017mb 47f 45f
9:04pm 4.5ft 6s 18 20 mph 1016.7mb 47f 45f
8:04pm 5ft 6s 16 20 mph 1016.6mb 47f 45f
7:04pm 4.5ft 6s 16 18 mph 1016.3mb 47f 45f
6:04pm 5ft 6s 16 20 mph 1016.2mb 47f 46f
5:04pm 5.5ft 8s 13 16 mph 1015.8mb 47f 46f
4:04pm 5ft 8s 18 22 mph 1015.5mb 47f 47f
3:04pm 6ft 8s 18 22 mph 1014.7mb 47f 47f
2:04pm 6ft 6s 16 20 mph 1014.4mb 47f 47f
1:04pm 6ft 8s  -  mph - 47f -
12:04pm 7ft 8s  -  mph - 47f -
11:04am 8ft 8s  -  mph - 47f -
9:04am 7.5ft 6s 22 29 mph 1014.5mb 47f 45f
8:04am 7ft 8s 25 31 mph 1013.7mb 47f 45f
7:04am 8ft 8s 25 29 mph 1012.7mb 47f 45f
6:04am 7.5ft 6s 25 29 mph 1012.2mb 47f 45f
5:04am 7.5ft 8s 22 29 mph 1011.1mb 47f 45f
4:04am 8.5ft 8s 22 29 mph 1010.4mb 47f 45f
3:04am 8ft 8s 25 31 mph 1010.3mb 47f 45f
2:04am 9ft 8s 25 29 mph 1009.7mb 47f 45f
1:04am 8.5ft 8s 27 31 mph 1006.6mb 47f 46f
12:04am 8.5ft 8s 27 31 mph 1006.6mb 47f 46f
Thu 12/25 11:04pm 10ft 8s 29 34 mph 1005.8mb 47f 47f
10:04pm 10.5ft 8s 29 36 mph 1005.6mb 47f 47f
9:04pm 9ft 8s 27 31 mph 1004.3mb 47f 48f
8:04pm 8.5ft 8s 22 27 mph 1004.1mb 47f 47f
7:04pm 8ft 8s 22 27 mph 1002.7mb 47f 48f
6:04pm 8ft 8s 20 27 mph 1001mb 47f 48f
5:04pm 8ft 8s 20 25 mph 1000.1mb 47f 49f
4:04pm 7.5ft 8s 20 22 mph 998.7mb 47f 48f
3:04pm 8.5ft 8s 20 25 mph 997.2mb 47f 48f
2:04pm 8ft 8s 22 29 mph 995.7mb 47f 49f
1:04pm 8ft 8s 22 29 mph 994.6mb 47f 50f
12:04pm 9ft 8s 25 29 mph 994.6mb 47f 51f
11:04am 8ft 8s 22 27 mph 994.8mb 47f 52f
10:04am 9ft 8s 22 27 mph 996.2mb 47f 52f
9:04am 9.5ft 8s 22 27 mph 995.4mb 47f 52f
8:04am 9ft 8s 25 29 mph 996.3mb 47f 52f
7:04am 8ft 8s 22 25 mph 997.3mb 47f 52f
6:04am  -   -  18 22 mph 998mb - 52f
5:04am 7ft 8s 20 22 mph 998.5mb 47f 53f
4:04am 6ft 6s 20 25 mph 998.4mb 47f 53f
3:04am 6ft 6s 25 29 mph 999mb 48f 54f
2:04am 7ft 6s 25 29 mph 999.5mb 48f 54f
1:04am 6ft 5s 25 29 mph 1000.3mb 48f 54f
12:04am 5ft 5s 20 25 mph 1001.2mb 48f 53f
Wed 12/24 11:04pm 5ft 5s 22 27 mph 1002.6mb 48f 53f
10:04pm 5ft 5s 25 31 mph 1003.7mb 48f 53f
9:04pm 5ft 8s 20 25 mph 1005.3mb 48f 51f
8:04pm 3.5ft 5s 16 18 mph 1007.4mb 48f 50f
7:04pm 4.5ft 8s 16 18 mph 1009.2mb 47f 50f
6:04pm  -   -  13 16 mph 1010mb - 49f
4:04pm 5ft 6s 13 16 mph 1012.1mb 47f 47f
3:04pm 4.5ft 8s 18 20 mph 1012.4mb 47f 46f
2:04pm 5ft 6s 16 18 mph 1013.7mb 48f 46f
1:04pm 5ft 5s 13 18 mph 1014.8mb 48f 46f
12:04pm 5ft 8s 18 20 mph 1015.6mb 48f 45f
11:04am 5ft 6s 18 22 mph 1016.5mb 48f 44f
10:04am 5ft 5s 18 20 mph 1017.8mb 48f 44f
9:04am 5ft 8s 18 22 mph 1018.8mb 48f 44f
6:04am 5.5ft 6s 18 22 mph 1020.7mb 48f 43f
5:04am 6ft 8s 22 29 mph 1020.2mb 48f 43f
4:04am 7ft 8s 20 22 mph 1021mb 48f 43f